Time;durP1;ratioP1;P1;durP2;ratioP2;P2;SDS_P1;SDS_P2;PMS_P1;PMS_P2;Temp;Humidity;BMP_temperature;BMP_pressure;BME280_temperature;BME280_humidity;BME280_pressure;Samples;Min_cycle;Max_cycle;Signal;HPM_P1;HPM_P2
2021/11/01 00:00:52;;;;;;;;;;;17.90;80.00;;;;;;4261892;27;20391;-62
2021/11/01 00:02:55;;;;;;;;;;;17.90;80.10;;;;;;4249223;27;19923;-65
2021/11/01 00:04:57;;;;;;;;;;;17.90;80.00;;;;;;4246375;27;19957;-63
2021/11/01 00:07:01;;;;;;;;;;;17.90;80.00;;;;;;4253342;27;19919;-63
2021/11/01 00:09:04;;;;;;;;;;;17.80;79.90;;;;;;4252364;27;19920;-63
2021/11/01 00:11:09;;;;;;;;;;;17.80;79.90;;;;;;4247646;27;19920;-65
2021/11/01 00:13:12;;;;;;;;;;;17.80;79.90;;;;;;4248776;27;20328;-63
2021/11/01 00:15:15;;;;;;;;;;;17.80;79.90;;;;;;4246922;27;19934;-63
2021/11/01 00:17:18;;;;;;;;;;;17.80;80.00;;;;;;4252622;27;19926;-63
2021/11/01 00:19:20;;;;;;;;;;;17.90;79.90;;;;;;4252980;27;19922;-65
2021/11/01 00:21:24;;;;;;;;;;;17.80;79.90;;;;;;4255214;27;19941;-64
2021/11/01 00:23:28;;;;;;;;;;;17.80;79.80;;;;;;4258238;27;20324;-63
2021/11/01 00:25:31;;;;;;;;;;;17.90;79.80;;;;;;4246614;27;20355;-64
2021/11/01 00:27:34;;;;;;;;;;;17.80;79.80;;;;;;4252142;27;20337;-63
2021/11/01 00:29:37;;;;;;;;;;;17.90;79.90;;;;;;4253247;27;20364;-63
2021/11/01 00:31:39;;;;;;;;;;;17.80;79.80;;;;;;4246866;27;19965;-64
2021/11/01 00:33:42;;;;;;;;;;;17.80;79.70;;;;;;4258307;27;19972;-63
2021/11/01 00:35:46;;;;;;;;;;;17.80;79.80;;;;;;4246428;27;19923;-63
2021/11/01 00:37:49;;;;;;;;;;;17.80;79.80;;;;;;4250778;27;19948;-63
2021/11/01 00:39:55;;;;;;;;;;;17.80;79.70;;;;;;4237392;27;20420;-64
2021/11/01 00:41:57;;;;;;;;;;;17.80;79.80;;;;;;4263328;27;19923;-64
2021/11/01 00:44:00;;;;;;;;;;;17.80;79.80;;;;;;4232202;27;19920;-64
2021/11/01 00:46:02;;;;;;;;;;;17.80;79.80;;;;;;4262593;27;19964;-63
2021/11/01 00:48:06;;;;;;;;;;;17.80;79.70;;;;;;4250197;27;19972;-67
2021/11/01 00:50:09;;;;;;;;;;;17.80;79.70;;;;;;4254217;27;20046;-64
2021/11/01 00:52:12;;;;;;;;;;;17.80;79.70;;;;;;4246477;28;19919;-64
2021/11/01 00:54:15;;;;;;;;;;;17.80;79.70;;;;;;4258375;27;20336;-64
2021/11/01 00:56:19;;;;;;;;;;;17.80;79.70;;;;;;4246343;28;20031;-64
2021/11/01 00:58:23;;;;;;;;;;;17.80;79.80;;;;;;4249445;27;19919;-65
2021/11/01 01:00:26;;;;;;;;;;;17.70;79.70;;;;;;4254871;27;19919;-63
2021/11/01 01:02:32;;;;;;;;;;;17.80;79.70;;;;;;4246086;28;19920;-64
2021/11/01 01:04:35;;;;;;;;;;;17.80;79.70;;;;;;4258776;27;19919;-63
2021/11/01 01:06:38;;;;;;;;;;;17.80;79.70;;;;;;4246243;28;19919;-64
2021/11/01 01:08:40;;;;;;;;;;;17.80;79.70;;;;;;4230862;27;19920;-63
2021/11/01 01:10:44;;;;;;;;;;;17.80;79.70;;;;;;4255205;27;19919;-65
2021/11/01 01:12:48;;;;;;;;;;;17.80;79.60;;;;;;4257280;27;19919;-63
2021/11/01 01:14:58;;;;;;;;;;;17.80;79.70;;;;;;4261527;27;19923;-63
2021/11/01 01:17:01;;;;;;;;;;;17.70;79.60;;;;;;4249373;27;19923;-64
2021/11/01 01:19:06;;;;;;;;;;;17.70;79.60;;;;;;4253454;27;19923;-63
2021/11/01 01:23:30;;;;;;;;;;;17.70;79.50;;;;;;4265732;27;19919;-63
2021/11/01 01:25:44;;;;;;;;;;;17.80;79.60;;;;;;4260536;27;19919;-64
2021/11/01 01:27:49;;;;;;;;;;;17.70;79.50;;;;;;4249158;27;19965;-64
2021/11/01 01:29:52;;;;;;;;;;;17.70;79.50;;;;;;4238206;27;19927;-63
2021/11/01 01:31:55;;;;;;;;;;;17.70;79.60;;;;;;4254350;27;19939;-64
2021/11/01 01:33:59;;;;;;;;;;;17.70;79.40;;;;;;4250074;27;19923;-64
2021/11/01 01:36:01;;;;;;;;;;;17.70;79.50;;;;;;4260697;27;19923;-63
2021/11/01 01:38:05;;;;;;;;;;;17.70;79.50;;;;;;4254084;27;20318;-64
2021/11/01 01:40:08;;;;;;;;;;;17.70;79.50;;;;;;4261668;27;19964;-67
2021/11/01 01:42:11;;;;;;;;;;;17.70;79.50;;;;;;4254460;27;19919;-65
2021/11/01 01:44:15;;;;;;;;;;;17.70;79.50;;;;;;4250529;27;19923;-64
2021/11/01 01:46:18;;;;;;;;;;;17.70;79.50;;;;;;4263077;27;20368;-64
2021/11/01 01:48:22;;;;;;;;;;;17.70;79.50;;;;;;4266296;27;19926;-63
2021/11/01 01:50:24;;;;;;;;;;;17.70;79.40;;;;;;4259310;27;19973;-65
2021/11/01 01:52:27;;;;;;;;;;;17.70;79.50;;;;;;4259576;27;19964;-63
2021/11/01 01:54:30;;;;;;;;;;;17.70;80.00;;;;;;4246671;27;19919;-63
2021/11/01 01:56:33;;;;;;;;;;;17.70;79.40;;;;;;4253774;27;19919;-62
2021/11/01 01:58:41;;;;;;;;;;;17.70;79.40;;;;;;4265676;27;19919;-63
2021/11/01 02:00:58;;;;;;;;;;;17.70;79.40;;;;;;4259061;27;19988;-65
2021/11/01 02:03:01;;;;;;;;;;;17.70;79.50;;;;;;4261698;27;20359;-64
2021/11/01 02:05:05;;;;;;;;;;;17.70;79.40;;;;;;4263931;27;19934;-63
2021/11/01 02:07:13;;;;;;;;;;;17.70;79.40;;;;;;4253991;27;19963;-63
2021/11/01 02:09:19;;;;;;;;;;;17.70;79.40;;;;;;4265826;27;19960;-64
2021/11/01 02:11:24;;;;;;;;;;;17.70;79.40;;;;;;4256891;27;20573;-64
2021/11/01 02:13:29;;;;;;;;;;;17.60;79.40;;;;;;4252908;27;19971;-64
2021/11/01 02:15:35;;;;;;;;;;;17.70;79.40;;;;;;4264105;27;19923;-66
2021/11/01 02:17:40;;;;;;;;;;;17.70;79.30;;;;;;4253856;27;20367;-66
2021/11/01 02:19:46;;;;;;;;;;;17.60;79.40;;;;;;4265233;27;19919;-66
2021/11/01 02:21:54;;;;;;;;;;;17.60;79.30;;;;;;4252696;27;19923;-63
2021/11/01 02:24:02;;;;;;;;;;;17.60;79.30;;;;;;4262682;27;20302;-63
2021/11/01 02:26:08;;;;;;;;;;;17.60;79.30;;;;;;4263589;27;20431;-64
2021/11/01 02:28:13;;;;;;;;;;;17.60;79.30;;;;;;4237094;27;19973;-64
2021/11/01 02:30:18;;;;;;;;;;;17.60;79.40;;;;;;4265481;27;19964;-63
2021/11/01 02:32:22;;;;;;;;;;;17.60;79.30;;;;;;4253707;27;19964;-63
2021/11/01 02:34:24;;;;;;;;;;;17.60;79.20;;;;;;4263955;27;19923;-65
2021/11/01 02:36:28;;;;;;;;;;;17.60;79.20;;;;;;4263063;27;19926;-64
2021/11/01 02:38:31;;;;;;;;;;;17.60;79.20;;;;;;4250506;27;19919;-63
2021/11/01 02:40:34;;;;;;;;;;;17.60;79.20;;;;;;4247877;27;19923;-63
2021/11/01 02:42:38;;;;;;;;;;;17.60;79.30;;;;;;4258869;27;19923;-64
2021/11/01 02:44:48;;;;;;;;;;;17.50;79.20;;;;;;4249711;27;19919;-64
2021/11/01 02:46:51;;;;;;;;;;;17.60;79.20;;;;;;4249973;27;19919;-63
2021/11/01 02:48:54;;;;;;;;;;;17.60;79.20;;;;;;4257737;27;20507;-64
2021/11/01 02:50:56;;;;;;;;;;;17.60;79.20;;;;;;4247967;27;19920;-63
2021/11/01 02:52:59;;;;;;;;;;;17.60;79.10;;;;;;4252059;27;19931;-64
2021/11/01 02:55:05;;;;;;;;;;;17.60;79.10;;;;;;4263028;27;20501;-63
2021/11/01 02:57:07;;;;;;;;;;;17.60;79.20;;;;;;4262710;27;19919;-64
2021/11/01 02:59:11;;;;;;;;;;;17.50;79.10;;;;;;4253955;27;19923;-64
2021/11/01 03:01:16;;;;;;;;;;;17.60;79.10;;;;;;4264747;27;19927;-63
2021/11/01 03:03:19;;;;;;;;;;;17.60;79.10;;;;;;4253800;27;20386;-63
2021/11/01 03:05:23;;;;;;;;;;;17.60;79.10;;;;;;4262711;27;19919;-64
2021/11/01 03:07:26;;;;;;;;;;;17.50;79.00;;;;;;4262736;27;19972;-63
2021/11/01 03:09:30;;;;;;;;;;;17.60;79.10;;;;;;4253886;27;19922;-63
2021/11/01 03:11:33;;;;;;;;;;;17.50;79.10;;;;;;4264868;27;19971;-64
2021/11/01 03:13:36;;;;;;;;;;;17.50;79.00;;;;;;4253142;27;19919;-63
2021/11/01 03:15:40;;;;;;;;;;;17.50;79.00;;;;;;4262148;27;19923;-63
2021/11/01 03:17:45;;;;;;;;;;;17.50;78.90;;;;;;4262681;27;19919;-63
2021/11/01 03:19:49;;;;;;;;;;;17.50;78.90;;;;;;4234640;27;19976;-63
2021/11/01 03:21:53;;;;;;;;;;;17.50;79.00;;;;;;4264626;27;19919;-68
2021/11/01 03:23:56;;;;;;;;;;;17.50;78.90;;;;;;4259719;27;19919;-63
2021/11/01 03:26:00;;;;;;;;;;;17.50;78.90;;;;;;4249931;27;19919;-63
2021/11/01 03:28:04;;;;;;;;;;;17.50;78.90;;;;;;4248479;27;19919;-64
2021/11/01 03:30:07;;;;;;;;;;;17.50;79.00;;;;;;4252867;27;20364;-65
2021/11/01 03:32:12;;;;;;;;;;;17.50;79.00;;;;;;4264255;27;19919;-65
2021/11/01 03:34:15;;;;;;;;;;;17.50;78.90;;;;;;4253342;27;19965;-63
2021/11/01 03:36:18;;;;;;;;;;;17.50;78.90;;;;;;4260857;27;20355;-63
2021/11/01 03:38:21;;;;;;;;;;;17.50;78.90;;;;;;4255350;27;19919;-66
2021/11/01 03:40:26;;;;;;;;;;;17.50;78.90;;;;;;4258706;27;19964;-64
2021/11/01 03:42:29;;;;;;;;;;;17.40;78.90;;;;;;4247042;27;19931;-64
2021/11/01 03:44:34;;;;;;;;;;;17.40;78.90;;;;;;4255902;27;19926;-65
2021/11/01 03:48:43;;;;;;;;;;;17.50;78.90;;;;;;4248054;27;19927;-63
2021/11/01 03:50:56;;;;;;;;;;;17.50;78.90;;;;;;4258172;27;19919;-63
2021/11/01 03:52:58;;;;;;;;;;;17.50;78.90;;;;;;4246697;27;20317;-63
2021/11/01 03:55:02;;;;;;;;;;;17.50;78.90;;;;;;4257070;27;19923;-63
2021/11/01 03:57:06;;;;;;;;;;;17.50;78.90;;;;;;4230498;27;19920;-66
2021/11/01 03:59:08;;;;;;;;;;;17.40;78.80;;;;;;4248168;27;20416;-63
2021/11/01 04:01:11;;;;;;;;;;;17.40;78.80;;;;;;4257812;27;19972;-63
2021/11/01 04:03:14;;;;;;;;;;;17.40;78.80;;;;;;4246576;27;19949;-63
2021/11/01 04:05:18;;;;;;;;;;;17.40;78.80;;;;;;4255851;27;19964;-65
2021/11/01 04:07:22;;;;;;;;;;;17.40;78.80;;;;;;4249333;27;19923;-64
2021/11/01 04:09:24;;;;;;;;;;;17.40;78.80;;;;;;4247869;27;20436;-64
2021/11/01 04:11:28;;;;;;;;;;;17.40;78.80;;;;;;4258283;27;19980;-64
2021/11/01 04:13:30;;;;;;;;;;;17.40;78.80;;;;;;4255173;27;19923;-63
2021/11/01 04:15:37;;;;;;;;;;;17.40;78.80;;;;;;4255581;27;19926;-64
2021/11/01 04:17:46;;;;;;;;;;;17.40;78.80;;;;;;4249044;27;19923;-63
2021/11/01 04:20:00;;;;;;;;;;;17.40;78.70;;;;;;4247996;27;19935;-64
2021/11/01 04:22:04;;;;;;;;;;;17.40;78.70;;;;;;4253756;27;20338;-64
2021/11/01 04:24:07;;;;;;;;;;;17.40;78.80;;;;;;4263808;27;19971;-63
2021/11/01 04:26:14;;;;;;;;;;;17.40;78.70;;;;;;4251959;27;20303;-63
2021/11/01 04:28:16;;;;;;;;;;;17.40;78.70;;;;;;4263037;27;20252;-63
2021/11/01 04:30:20;;;;;;;;;;;17.40;78.70;;;;;;4260255;27;19971;-63
2021/11/01 04:32:29;;;;;;;;;;;17.40;78.60;;;;;;4253372;27;20255;-63
2021/11/01 04:34:35;;;;;;;;;;;17.40;78.60;;;;;;4244953;27;19919;-63
2021/11/01 04:36:39;;;;;;;;;;;17.40;78.60;;;;;;4252789;27;19920;-62
2021/11/01 04:39:10;;;;;;;;;;;17.40;78.60;;;;;;4257948;27;19977;-64
2021/11/01 04:53:10;;;;;;;;;;;17.40;78.40;;;;;;4258896;27;19919;-64
2021/11/01 04:55:14;;;;;;;;;;;17.40;78.40;;;;;;4268974;27;19923;-64
2021/11/01 04:57:17;;;;;;;;;;;17.30;78.40;;;;;;4238321;27;19919;-63
2021/11/01 04:59:21;;;;;;;;;;;17.30;78.30;;;;;;4268786;27;19926;-65
2021/11/01 05:01:31;;;;;;;;;;;17.40;78.30;;;;;;4263271;27;19919;-63
2021/11/01 05:03:38;;;;;;;;;;;17.30;78.30;;;;;;4260137;27;20308;-63
2021/11/01 05:05:40;;;;;;;;;;;17.30;78.40;;;;;;4251701;27;19920;-64
2021/11/01 05:07:44;;;;;;;;;;;17.30;78.40;;;;;;4264476;27;19919;-63
2021/11/01 05:10:04;;;;;;;;;;;17.30;78.40;;;;;;4251714;27;19927;-63
2021/11/01 05:14:14;;;;;;;;;;;17.30;78.30;;;;;;4252064;27;19920;-63
2021/11/01 05:16:23;;;;;;;;;;;17.30;78.30;;;;;;4253160;27;19923;-63
2021/11/01 05:21:21;;;;;;;;;;;17.30;78.20;;;;;;4255368;27;19919;-64
2021/11/01 05:25:18;;;;;;;;;;;17.30;78.20;;;;;;4251876;27;19919;-63
2021/11/01 05:29:25;;;;;;;;;;;17.30;78.20;;;;;;4260205;27;20371;-63
2021/11/01 05:31:29;;;;;;;;;;;17.30;78.20;;;;;;4251677;27;20270;-63
2021/11/01 05:35:54;;;;;;;;;;;17.30;78.20;;;;;;4251291;27;19919;-64
2021/11/01 05:37:57;;;;;;;;;;;17.30;78.20;;;;;;4258608;27;19920;-63
2021/11/01 05:40:00;;;;;;;;;;;17.30;78.20;;;;;;4262152;27;19923;-63
2021/11/01 05:42:02;;;;;;;;;;;17.30;78.20;;;;;;4267751;27;19919;-66
2021/11/01 05:44:08;;;;;;;;;;;17.30;78.20;;;;;;4256204;27;20388;-63
2021/11/01 05:46:12;;;;;;;;;;;17.30;78.30;;;;;;4266878;27;20363;-63
2021/11/01 05:48:15;;;;;;;;;;;17.30;78.20;;;;;;4257046;27;19968;-64
2021/11/01 05:50:18;;;;;;;;;;;17.30;78.20;;;;;;4258531;27;19972;-63
2021/11/01 05:52:27;;;;;;;;;;;17.30;78.20;;;;;;4251427;27;19927;-63
2021/11/01 05:54:31;;;;;;;;;;;17.30;78.20;;;;;;4256856;27;19980;-63
2021/11/01 05:56:40;;;;;;;;;;;17.30;78.10;;;;;;4268661;27;20436;-63
2021/11/01 06:07:57;;;;;;;;;;;17.30;78.10;;;;;;4212045;28;19920;-64
2021/11/01 06:14:28;;;;;;;;;;;17.30;78.10;;;;;;4260731;27;20360;-63
2021/11/01 06:16:33;;;;;;;;;;;17.30;78.10;;;;;;4252640;27;19920;-64
2021/11/01 06:18:35;;;;;;;;;;;17.20;78.00;;;;;;4250087;27;19926;-64
2021/11/01 06:20:38;;;;;;;;;;;17.20;78.10;;;;;;4259806;27;20403;-64
2021/11/01 06:22:43;;;;;;;;;;;17.20;78.10;;;;;;4248345;27;20059;-69
2021/11/01 06:24:51;;;;;;;;;;;17.20;78.00;;;;;;4256280;27;19975;-64
2021/11/01 06:26:54;;;;;;;;;;;17.30;78.10;;;;;;4252183;27;19972;-69
2021/11/01 06:29:03;;;;;;;;;;;17.30;78.10;;;;;;4249934;27;20325;-64
2021/11/01 06:31:08;;;;;;;;;;;17.30;78.10;;;;;;4259598;27;20321;-65
2021/11/01 06:46:20;;;;;;;;;;;17.20;78.00;;;;;;4253848;27;20372;-66
2021/11/01 06:54:49;;;;;;;;;;;17.20;78.00;;;;;;4265050;27;19927;-70
2021/11/01 07:14:05;;;;;;;;;;;17.20;77.90;;;;;;4248867;27;19919;-69
2021/11/01 07:15:54;;;;;;;;;;;17.20;77.90;;;;;;4250057;27;19945;-64
2021/11/01 07:25:24;;;;;;;;;;;17.20;77.90;;;;;;4247516;27;19924;-64
2021/11/01 08:42:46;;;;;;;;;;;17.20;77.50;;;;;;4246106;27;19930;-67
2021/11/01 09:07:56;;;;;;;;;;;17.30;77.40;;;;;;4214383;28;19920;-66
2021/11/01 09:21:37;;;;;;;;;;;17.30;77.30;;;;;;4251083;27;19919;-66
2021/11/01 09:28:06;;;;;;;;;;;17.30;77.20;;;;;;4259777;27;19946;-66
2021/11/01 09:35:40;;;;;;;;;;;17.30;77.20;;;;;;4261480;27;19934;-67
2021/11/01 09:37:58;;;;;;;;;;;17.30;77.10;;;;;;4254439;27;19926;-70
2021/11/01 09:42:22;;;;;;;;;;;17.30;77.00;;;;;;4261404;27;19919;-69
2021/11/01 09:44:27;;;;;;;;;;;17.30;77.00;;;;;;4250521;27;19919;-66
2021/11/01 09:46:29;;;;;;;;;;;17.30;77.10;;;;;;4253811;27;19938;-66
2021/11/01 09:48:34;;;;;;;;;;;17.30;77.00;;;;;;4262852;27;19919;-66
2021/11/01 09:50:36;;;;;;;;;;;17.30;77.00;;;;;;4265331;27;19964;-65
2021/11/01 09:52:42;;;;;;;;;;;17.30;77.00;;;;;;4255042;27;19926;-70
2021/11/01 09:54:46;;;;;;;;;;;17.40;77.10;;;;;;4266719;27;20336;-67
2021/11/01 09:57:00;;;;;;;;;;;17.40;77.10;;;;;;4257907;27;19960;-66
2021/11/01 09:59:11;;;;;;;;;;;17.40;77.00;;;;;;4263318;27;19919;-67
2021/11/01 10:01:16;;;;;;;;;;;17.40;77.00;;;;;;4263870;27;19980;-66
2021/11/01 10:03:29;;;;;;;;;;;17.40;77.10;;;;;;4255473;27;19971;-66
2021/11/01 10:05:35;;;;;;;;;;;17.40;77.00;;;;;;4265572;27;20502;-67
2021/11/01 10:07:46;;;;;;;;;;;17.40;77.10;;;;;;4253306;27;19919;-67
2021/11/01 10:09:50;;;;;;;;;;;17.40;77.10;;;;;;4248975;27;20329;-65
2021/11/01 10:11:53;;;;;;;;;;;17.40;77.10;;;;;;4252654;27;19934;-66
2021/11/01 10:13:58;;;;;;;;;;;17.40;77.10;;;;;;4248697;27;19920;-65
2021/11/01 10:18:22;;;;;;;;;;;17.40;77.10;;;;;;4248185;27;19987;-69
2021/11/01 10:20:26;;;;;;;;;;;17.40;77.10;;;;;;4253510;27;19923;-66
2021/11/01 10:22:33;;;;;;;;;;;17.40;77.00;;;;;;4254961;27;19918;-66
2021/11/01 10:24:40;;;;;;;;;;;17.50;77.10;;;;;;4253536;27;19919;-69
2021/11/01 10:26:45;;;;;;;;;;;17.50;77.00;;;;;;4249558;27;20527;-66
2021/11/01 10:28:49;;;;;;;;;;;17.50;77.10;;;;;;4259708;27;20317;-68
2021/11/01 10:30:51;;;;;;;;;;;17.50;77.00;;;;;;4248481;27;19980;-65
2021/11/01 10:32:55;;;;;;;;;;;17.50;77.00;;;;;;4254778;27;19922;-65
2021/11/01 10:35:08;;;;;;;;;;;17.50;77.00;;;;;;4253460;27;19919;-67
2021/11/01 10:37:11;;;;;;;;;;;17.50;76.90;;;;;;4253495;27;19919;-66
2021/11/01 10:39:17;;;;;;;;;;;17.60;76.90;;;;;;4253114;27;20526;-65
2021/11/01 11:11:56;;;;;;;;;;;17.60;76.40;;;;;;4248106;27;19976;-67
2021/11/01 11:14:18;;;;;;;;;;;17.50;76.20;;;;;;4251712;27;19919;-66
2021/11/01 11:18:56;;;;;;;;;;;17.60;76.20;;;;;;4248854;27;19943;-67
2021/11/01 11:23:46;;;;;;;;;;;17.60;75.90;;;;;;4264164;27;20566;-71
2021/11/01 11:26:02;;;;;;;;;;;17.60;75.90;;;;;;4258997;27;19923;-65
2021/11/01 11:33:13;;;;;;;;;;;17.60;75.70;;;;;;4264181;27;19964;-65
2021/11/01 11:49:04;;;;;;;;;;;17.60;75.60;;;;;;4264131;27;19926;-70
2021/11/01 11:51:08;;;;;;;;;;;17.60;75.50;;;;;;4251294;27;19926;-66
2021/11/01 11:53:11;;;;;;;;;;;17.60;75.50;;;;;;4247095;27;19919;-70
2021/11/01 11:55:15;;;;;;;;;;;17.60;75.40;;;;;;4249731;27;20348;-66
2021/11/01 11:57:19;;;;;;;;;;;17.60;75.40;;;;;;4255087;27;19924;-72
2021/11/01 11:59:30;;;;;;;;;;;17.60;75.30;;;;;;4246898;27;19919;-67
2021/11/01 12:01:36;;;;;;;;;;;17.60;75.30;;;;;;4251109;27;20274;-69
2021/11/01 12:03:39;;;;;;;;;;;17.60;75.20;;;;;;4264045;27;19923;-66
2021/11/01 12:06:07;;;;;;;;;;;17.60;75.20;;;;;;4258990;27;19926;-72
2021/11/01 12:17:38;;;;;;;;;;;17.60;75.00;;;;;;4258318;27;19998;-69
2021/11/01 12:19:41;;;;;;;;;;;17.60;75.10;;;;;;4246995;27;19919;-68
2021/11/01 12:21:45;;;;;;;;;;;17.60;75.00;;;;;;4252706;27;19972;-68
2021/11/01 12:23:48;;;;;;;;;;;17.60;75.00;;;;;;4261458;27;19919;-66
2021/11/01 12:25:50;;;;;;;;;;;17.50;74.90;;;;;;4261327;27;19972;-70
2021/11/01 12:28:00;;;;;;;;;;;17.60;74.90;;;;;;4260069;27;19923;-67
2021/11/01 12:30:05;;;;;;;;;;;17.60;75.00;;;;;;4248042;27;20497;-67
2021/11/01 12:32:10;;;;;;;;;;;17.60;75.00;;;;;;4256547;27;19980;-74
2021/11/01 12:34:22;;;;;;;;;;;17.60;75.00;;;;;;4248959;27;20352;-71
2021/11/01 12:36:37;;;;;;;;;;;17.60;74.90;;;;;;4247942;27;19926;-67
2021/11/01 12:38:56;;;;;;;;;;;17.60;74.90;;;;;;4258404;27;19943;-71
2021/11/01 12:41:10;;;;;;;;;;;17.60;74.90;;;;;;4262866;27;20268;-72
2021/11/01 12:46:05;;;;;;;;;;;17.60;74.70;;;;;;4246369;27;20272;-70
2021/11/01 12:57:20;;;;;;;;;;;17.60;74.90;;;;;;4260557;27;19918;-70
2021/11/01 12:59:30;;;;;;;;;;;17.60;74.80;;;;;;4254541;27;19919;-70
2021/11/01 13:01:33;;;;;;;;;;;17.60;74.80;;;;;;4263266;27;19919;-73
2021/11/01 13:03:36;;;;;;;;;;;17.60;74.80;;;;;;4258991;27;19968;-69
2021/11/01 13:05:44;;;;;;;;;;;17.60;74.80;;;;;;4246226;28;19984;-74
2021/11/01 13:09:58;;;;;;;;;;;17.60;74.90;;;;;;4256815;27;19924;-69
2021/11/01 13:19:03;;;;;;;;;;;17.50;74.90;;;;;;4253493;27;19927;-66
2021/11/01 13:21:08;;;;;;;;;;;17.60;74.90;;;;;;4254319;27;19923;-69
2021/11/01 13:23:12;;;;;;;;;;;17.60;74.90;;;;;;4252947;27;19919;-69
2021/11/01 13:28:04;;;;;;;;;;;17.60;74.90;;;;;;4248957;27;19971;-71
2021/11/01 13:34:47;;;;;;;;;;;17.60;75.30;;;;;;4260481;27;20006;-66
2021/11/01 13:36:51;;;;;;;;;;;17.50;75.00;;;;;;4249009;27;19919;-70
2021/11/01 13:39:04;;;;;;;;;;;17.60;75.10;;;;;;4256515;27;19971;-65
2021/11/01 13:41:08;;;;;;;;;;;17.50;75.10;;;;;;4254483;27;19919;-72
2021/11/01 13:43:11;;;;;;;;;;;17.50;75.20;;;;;;4250132;27;19927;-68
2021/11/01 13:45:15;;;;;;;;;;;17.50;75.20;;;;;;4260500;27;19919;-70
2021/11/01 13:47:17;;;;;;;;;;;17.50;75.20;;;;;;4248896;27;19973;-69
2021/11/01 13:49:20;;;;;;;;;;;17.50;75.30;;;;;;4255121;27;20332;-70
2021/11/01 13:51:27;;;;;;;;;;;17.50;75.30;;;;;;4254790;27;19923;-67
2021/11/01 13:53:37;;;;;;;;;;;17.50;75.40;;;;;;4249903;27;20287;-70
2021/11/01 13:57:47;;;;;;;;;;;17.50;75.50;;;;;;4248959;27;19976;-68
2021/11/01 13:59:59;;;;;;;;;;;17.50;75.50;;;;;;4256322;27;19982;-67
2021/11/01 14:20:08;;;;;;;;;;;17.50;76.00;;;;;;4249037;27;19964;-69
2021/11/01 15:15:45;;;;;;;;;;;17.30;76.60;;;;;;4213474;27;19933;-66
2021/11/01 15:18:14;;;;;;;;;;;17.30;76.70;;;;;;4258848;27;19944;-69
2021/11/01 15:34:16;;;;;;;;;;;17.30;76.70;;;;;;4238609;27;19934;-69
2021/11/01 15:36:33;;;;;;;;;;;17.30;76.60;;;;;;4264501;27;19919;-67
2021/11/01 16:16:07;;;;;;;;;;;17.30;77.10;;;;;;4252746;27;19979;-66
2021/11/01 16:18:11;;;;;;;;;;;17.30;77.20;;;;;;4263367;27;19919;-66
2021/11/01 16:20:14;;;;;;;;;;;17.30;77.20;;;;;;4251187;27;19944;-66
2021/11/01 16:22:18;;;;;;;;;;;17.30;77.20;;;;;;4263374;27;19919;-69
2021/11/01 16:24:21;;;;;;;;;;;17.30;77.20;;;;;;4259344;27;19999;-72
2021/11/01 16:26:28;;;;;;;;;;;17.30;77.20;;;;;;4254256;27;19923;-69
2021/11/01 16:28:33;;;;;;;;;;;17.30;77.20;;;;;;4246755;27;19926;-67
2021/11/01 16:30:37;;;;;;;;;;;17.20;77.20;;;;;;4258685;27;19923;-66
2021/11/01 16:32:44;;;;;;;;;;;17.20;77.30;;;;;;4246701;27;19923;-69
2021/11/01 16:34:53;;;;;;;;;;;17.20;77.30;;;;;;4252766;27;19952;-66
2021/11/01 16:38:58;;;;;;;;;;;17.20;77.30;;;;;;4259915;27;20367;-69
2021/11/01 16:41:02;;;;;;;;;;;17.30;77.30;;;;;;4259675;27;19923;-70
2021/11/01 16:43:13;;;;;;;;;;;17.20;77.30;;;;;;4247910;27;20322;-69
2021/11/01 16:45:25;;;;;;;;;;;17.20;77.30;;;;;;4248217;27;19919;-73
2021/11/01 16:47:27;;;;;;;;;;;17.20;77.30;;;;;;4246128;28;20337;-69
2021/11/01 16:49:31;;;;;;;;;;;17.20;77.40;;;;;;4247513;27;20409;-67
2021/11/01 16:51:35;;;;;;;;;;;17.20;77.50;;;;;;4258002;27;19923;-71
2021/11/01 16:53:40;;;;;;;;;;;17.20;77.40;;;;;;4246412;28;19919;-66
2021/11/01 16:55:47;;;;;;;;;;;17.20;77.50;;;;;;4247632;27;19919;-68
2021/11/01 16:57:54;;;;;;;;;;;17.20;77.60;;;;;;4259169;27;19923;-72
2021/11/01 17:00:19;;;;;;;;;;;17.20;77.60;;;;;;4261568;27;20333;-67
2021/11/01 17:03:01;;;;;;;;;;;17.20;77.60;;;;;;4253898;27;19919;-68
2021/11/01 17:05:01;;;;;;;;;;;17.20;77.60;;;;;;4258842;27;19919;-66
2021/11/01 17:07:32;;;;;;;;;;;17.20;77.60;;;;;;4251771;27;19919;-66
2021/11/01 17:28:42;;;;;;;;;;;17.10;77.70;;;;;;4252561;27;19975;-72
2021/11/01 17:30:54;;;;;;;;;;;17.10;77.80;;;;;;4260855;27;19919;-66
2021/11/01 17:38:02;;;;;;;;;;;17.10;77.90;;;;;;4252702;27;19972;-66
2021/11/01 18:41:37;;;;;;;;;;;17.00;78.20;;;;;;4250445;27;19972;-68
2021/11/01 18:51:04;;;;;;;;;;;17.00;78.20;;;;;;4255661;27;19934;-68
2021/11/01 18:53:09;;;;;;;;;;;17.00;78.10;;;;;;4265437;27;19926;-69
2021/11/01 18:55:12;;;;;;;;;;;17.00;78.10;;;;;;4252642;27;20408;-68
2021/11/01 18:57:14;;;;;;;;;;;17.00;78.70;;;;;;4265392;27;19919;-69
2021/11/01 18:59:17;;;;;;;;;;;17.00;78.10;;;;;;4261819;27;20474;-70
2021/11/01 19:01:21;;;;;;;;;;;17.00;78.20;;;;;;4255372;27;20371;-70
2021/11/01 19:03:27;;;;;;;;;;;17.00;78.20;;;;;;4265312;27;19919;-73
2021/11/01 19:10:17;;;;;;;;;;;16.90;78.20;;;;;;4254084;27;19976;-67
2021/11/01 20:06:41;;;;;;;;;;;16.90;78.50;;;;;;4248278;27;20758;-69
2021/11/01 21:26:21;;;;;;;;;;;16.70;78.30;;;;;;4255339;27;19922;-69
2021/11/01 21:28:25;;;;;;;;;;;16.70;78.30;;;;;;4264293;27;20388;-68
2021/11/01 21:30:28;;;;;;;;;;;16.70;78.40;;;;;;4262054;27;19972;-68
2021/11/01 21:32:31;;;;;;;;;;;16.70;78.30;;;;;;4249290;27;20363;-68
2021/11/01 21:34:36;;;;;;;;;;;16.70;78.30;;;;;;4252968;27;19919;-69
2021/11/01 21:36:39;;;;;;;;;;;16.70;78.30;;;;;;4258039;27;19919;-69
2021/11/01 21:38:42;;;;;;;;;;;16.70;78.30;;;;;;4249396;27;19919;-69
2021/11/01 21:40:46;;;;;;;;;;;16.70;78.20;;;;;;4261620;27;19972;-69
2021/11/01 21:42:51;;;;;;;;;;;16.70;78.20;;;;;;4249469;27;19923;-68
2021/11/01 21:45:15;;;;;;;;;;;16.70;78.20;;;;;;4255802;27;19919;-68
2021/11/01 21:47:18;;;;;;;;;;;16.70;78.20;;;;;;4254963;27;20349;-69
2021/11/01 21:49:21;;;;;;;;;;;16.70;78.20;;;;;;4232086;27;19969;-68
2021/11/01 21:51:26;;;;;;;;;;;16.70;78.20;;;;;;4260611;27;19926;-68
2021/11/01 21:53:31;;;;;;;;;;;16.70;78.80;;;;;;4249269;27;19923;-68
2021/11/01 21:55:35;;;;;;;;;;;16.70;78.20;;;;;;4255686;27;20415;-69
2021/11/01 21:57:53;;;;;;;;;;;16.70;78.20;;;;;;4236472;27;19924;-67
2021/11/01 22:17:06;;;;;;;;;;;16.70;78.30;;;;;;4255622;27;19972;-70
2021/11/01 22:21:37;;;;;;;;;;;16.70;78.30;;;;;;4207350;27;19919;-68
2021/11/01 22:24:06;;;;;;;;;;;16.70;78.30;;;;;;4252873;27;20356;-67
2021/11/01 22:40:12;;;;;;;;;;;16.70;78.20;;;;;;4247492;27;19972;-69
2021/11/01 22:42:33;;;;;;;;;;;16.70;78.20;;;;;;4255958;27;19923;-68
2021/11/01 22:47:02;;;;;;;;;;;16.70;78.20;;;;;;4249781;27;19923;-69
2021/11/01 22:58:20;;;;;;;;;;;16.60;78.20;;;;;;4260732;27;19964;-68
2021/11/01 23:00:32;;;;;;;;;;;16.60;78.20;;;;;;4247949;27;19919;-68
2021/11/01 23:02:35;;;;;;;;;;;16.60;78.20;;;;;;4252092;27;20367;-70
2021/11/01 23:32:41;;;;;;;;;;;16.60;78.20;;;;;;4263673;27;19919;-68
2021/11/01 23:34:43;;;;;;;;;;;16.60;78.20;;;;;;4252744;27;20287;-67
2021/11/01 23:36:46;;;;;;;;;;;16.60;78.20;;;;;;4264850;27;19927;-68
2021/11/01 23:38:51;;;;;;;;;;;16.60;78.10;;;;;;4259175;27;20325;-69
2021/11/01 23:40:54;;;;;;;;;;;16.60;78.20;;;;;;4257594;27;20420;-69
2021/11/01 23:42:56;;;;;;;;;;;16.60;78.10;;;;;;4264397;27;19919;-72
2021/11/01 23:44:59;;;;;;;;;;;16.60;78.10;;;;;;4251704;27;19972;-69
2021/11/01 23:47:02;;;;;;;;;;;16.60;78.10;;;;;;4264594;27;19927;-68
2021/11/01 23:49:05;;;;;;;;;;;16.60;78.10;;;;;;4259599;27;19934;-70
2021/11/01 23:51:12;;;;;;;;;;;16.60;78.10;;;;;;4255696;27;19919;-72
2021/11/01 23:53:17;;;;;;;;;;;16.60;78.10;;;;;;4263594;27;19919;-68
2021/11/01 23:55:22;;;;;;;;;;;16.60;78.10;;;;;;4251448;27;19919;-68
2021/11/01 23:57:24;;;;;;;;;;;16.60;78.10;;;;;;4264305;27;19930;-67
2021/11/01 23:59:27;;;;;;;;;;;16.60;78.10;;;;;;4259578;27;20283;-69
